sensor_id;sensor_type;location;lat;lon;timestamp;P1;durP1;ratioP1;P2;durP2;ratioP2
24859;SDS011;12936;52.006;4.350;2023-09-07T00:00:24;10.65;;;7.30;;
24859;SDS011;12936;52.006;4.350;2023-09-07T00:02:59;11.50;;;7.53;;
24859;SDS011;12936;52.006;4.350;2023-09-07T00:05:27;8.98;;;7.10;;
24859;SDS011;12936;52.006;4.350;2023-09-07T00:07:56;9.15;;;8.25;;
24859;SDS011;12936;52.006;4.350;2023-09-07T00:10:28;12.63;;;7.40;;
24859;SDS011;12936;52.006;4.350;2023-09-07T00:12:58;12.75;;;7.43;;
24859;SDS011;12936;52.006;4.350;2023-09-07T00:15:30;10.65;;;7.95;;
24859;SDS011;12936;52.006;4.350;2023-09-07T00:18:07;11.57;;;7.53;;
24859;SDS011;12936;52.006;4.350;2023-09-07T00:20:36;8.50;;;7.15;;
24859;SDS011;12936;52.006;4.350;2023-09-07T00:23:05;8.68;;;7.82;;
24859;SDS011;12936;52.006;4.350;2023-09-07T00:25:34;10.50;;;7.65;;
24859;SDS011;12936;52.006;4.350;2023-09-07T00:28:05;10.82;;;7.70;;
24859;SDS011;12936;52.006;4.350;2023-09-07T00:30:34;10.80;;;8.02;;
24859;SDS011;12936;52.006;4.350;2023-09-07T00:33:02;10.30;;;7.97;;
24859;SDS011;12936;52.006;4.350;2023-09-07T00:35:32;9.95;;;7.72;;
24859;SDS011;12936;52.006;4.350;2023-09-07T00:38:01;9.05;;;8.10;;
24859;SDS011;12936;52.006;4.350;2023-09-07T00:40:31;12.90;;;8.70;;
24859;SDS011;12936;52.006;4.350;2023-09-07T00:43:01;10.15;;;7.95;;
24859;SDS011;12936;52.006;4.350;2023-09-07T00:45:31;12.00;;;8.10;;
24859;SDS011;12936;52.006;4.350;2023-09-07T00:48:00;14.65;;;8.60;;
24859;SDS011;12936;52.006;4.350;2023-09-07T00:50:29;9.43;;;7.97;;
24859;SDS011;12936;52.006;4.350;2023-09-07T00:52:59;10.75;;;7.93;;
24859;SDS011;12936;52.006;4.350;2023-09-07T00:55:30;11.15;;;7.85;;
24859;SDS011;12936;52.006;4.350;2023-09-07T00:58:01;10.98;;;8.07;;
24859;SDS011;12936;52.006;4.350;2023-09-07T01:00:31;9.77;;;8.07;;
24859;SDS011;12936;52.006;4.350;2023-09-07T01:03:01;12.70;;;8.68;;
24859;SDS011;12936;52.006;4.350;2023-09-07T01:05:32;11.07;;;7.63;;
24859;SDS011;12936;52.006;4.350;2023-09-07T01:08:14;11.75;;;8.25;;
24859;SDS011;12936;52.006;4.350;2023-09-07T01:10:46;14.63;;;9.40;;
24859;SDS011;12936;52.006;4.350;2023-09-07T01:13:18;11.18;;;8.77;;
24859;SDS011;12936;52.006;4.350;2023-09-07T01:15:50;10.32;;;7.88;;
24859;SDS011;12936;52.006;4.350;2023-09-07T01:18:18;15.48;;;8.63;;
24859;SDS011;12936;52.006;4.350;2023-09-07T01:20:51;13.10;;;8.80;;
24859;SDS011;12936;52.006;4.350;2023-09-07T01:23:22;12.80;;;9.02;;
24859;SDS011;12936;52.006;4.350;2023-09-07T01:25:50;9.75;;;8.32;;
24859;SDS011;12936;52.006;4.350;2023-09-07T01:28:19;14.77;;;9.13;;
24859;SDS011;12936;52.006;4.350;2023-09-07T01:30:49;9.88;;;8.88;;
24859;SDS011;12936;52.006;4.350;2023-09-07T01:33:19;10.30;;;9.20;;
24859;SDS011;12936;52.006;4.350;2023-09-07T01:35:47;11.25;;;9.07;;
24859;SDS011;12936;52.006;4.350;2023-09-07T01:38:38;12.20;;;8.70;;
24859;SDS011;12936;52.006;4.350;2023-09-07T01:41:07;14.90;;;9.05;;
24859;SDS011;12936;52.006;4.350;2023-09-07T01:43:59;10.77;;;8.88;;
24859;SDS011;12936;52.006;4.350;2023-09-07T01:46:29;12.07;;;8.52;;
24859;SDS011;12936;52.006;4.350;2023-09-07T01:48:58;10.98;;;8.50;;
24859;SDS011;12936;52.006;4.350;2023-09-07T01:51:27;11.65;;;9.18;;
24859;SDS011;12936;52.006;4.350;2023-09-07T01:54:19;13.13;;;9.15;;
24859;SDS011;12936;52.006;4.350;2023-09-07T01:56:50;10.38;;;9.25;;
24859;SDS011;12936;52.006;4.350;2023-09-07T01:59:18;9.65;;;8.57;;
24859;SDS011;12936;52.006;4.350;2023-09-07T02:01:47;10.18;;;9.18;;
24859;SDS011;12936;52.006;4.350;2023-09-07T02:04:15;10.15;;;9.05;;
24859;SDS011;12936;52.006;4.350;2023-09-07T02:06:44;15.88;;;9.65;;
24859;SDS011;12936;52.006;4.350;2023-09-07T02:09:12;13.40;;;9.45;;
24859;SDS011;12936;52.006;4.350;2023-09-07T02:11:42;12.27;;;9.68;;
24859;SDS011;12936;52.006;4.350;2023-09-07T02:14:10;14.50;;;9.70;;
24859;SDS011;12936;52.006;4.350;2023-09-07T02:16:42;11.52;;;9.05;;
24859;SDS011;12936;52.006;4.350;2023-09-07T02:19:13;12.27;;;9.48;;
24859;SDS011;12936;52.006;4.350;2023-09-07T02:21:46;11.00;;;9.30;;
24859;SDS011;12936;52.006;4.350;2023-09-07T02:24:15;12.43;;;8.98;;
24859;SDS011;12936;52.006;4.350;2023-09-07T02:26:49;10.27;;;9.00;;
24859;SDS011;12936;52.006;4.350;2023-09-07T02:29:18;10.07;;;9.07;;
24859;SDS011;12936;52.006;4.350;2023-09-07T02:31:48;12.90;;;9.18;;
24859;SDS011;12936;52.006;4.350;2023-09-07T02:34:18;11.43;;;10.25;;
24859;SDS011;12936;52.006;4.350;2023-09-07T02:36:49;12.68;;;10.48;;
24859;SDS011;12936;52.006;4.350;2023-09-07T02:39:19;13.18;;;9.65;;
24859;SDS011;12936;52.006;4.350;2023-09-07T02:41:50;14.68;;;10.05;;
24859;SDS011;12936;52.006;4.350;2023-09-07T02:44:18;12.57;;;10.13;;
24859;SDS011;12936;52.006;4.350;2023-09-07T02:46:46;11.25;;;10.05;;
24859;SDS011;12936;52.006;4.350;2023-09-07T02:49:18;12.02;;;9.98;;
24859;SDS011;12936;52.006;4.350;2023-09-07T02:51:46;11.38;;;10.07;;
24859;SDS011;12936;52.006;4.350;2023-09-07T02:54:15;11.00;;;9.77;;
24859;SDS011;12936;52.006;4.350;2023-09-07T02:56:45;13.60;;;9.93;;
24859;SDS011;12936;52.006;4.350;2023-09-07T02:59:19;13.07;;;10.10;;
24859;SDS011;12936;52.006;4.350;2023-09-07T03:01:48;11.85;;;10.00;;
24859;SDS011;12936;52.006;4.350;2023-09-07T03:04:18;11.32;;;9.73;;
24859;SDS011;12936;52.006;4.350;2023-09-07T03:06:47;13.38;;;9.98;;
24859;SDS011;12936;52.006;4.350;2023-09-07T03:09:15;14.80;;;9.90;;
24859;SDS011;12936;52.006;4.350;2023-09-07T03:11:43;14.00;;;10.73;;
24859;SDS011;12936;52.006;4.350;2023-09-07T03:14:13;11.50;;;9.73;;
24859;SDS011;12936;52.006;4.350;2023-09-07T03:16:45;13.30;;;10.65;;
24859;SDS011;12936;52.006;4.350;2023-09-07T03:19:16;13.52;;;10.60;;
24859;SDS011;12936;52.006;4.350;2023-09-07T03:21:49;12.02;;;10.52;;
24859;SDS011;12936;52.006;4.350;2023-09-07T03:24:19;12.05;;;10.18;;
24859;SDS011;12936;52.006;4.350;2023-09-07T03:26:49;13.55;;;11.13;;
24859;SDS011;12936;52.006;4.350;2023-09-07T03:29:17;14.32;;;10.93;;
24859;SDS011;12936;52.006;4.350;2023-09-07T03:32:09;11.95;;;10.57;;
24859;SDS011;12936;52.006;4.350;2023-09-07T03:34:40;12.27;;;10.43;;
24859;SDS011;12936;52.006;4.350;2023-09-07T03:37:09;11.85;;;10.50;;
24859;SDS011;12936;52.006;4.350;2023-09-07T03:39:38;12.43;;;10.35;;
24859;SDS011;12936;52.006;4.350;2023-09-07T03:42:07;11.82;;;10.30;;
24859;SDS011;12936;52.006;4.350;2023-09-07T03:44:37;11.85;;;10.65;;
24859;SDS011;12936;52.006;4.350;2023-09-07T03:47:05;14.23;;;10.75;;
24859;SDS011;12936;52.006;4.350;2023-09-07T03:49:42;18.60;;;10.93;;
24859;SDS011;12936;52.006;4.350;2023-09-07T03:52:10;14.02;;;12.05;;
24859;SDS011;12936;52.006;4.350;2023-09-07T03:54:40;12.43;;;11.02;;
24859;SDS011;12936;52.006;4.350;2023-09-07T03:57:11;13.10;;;11.35;;
24859;SDS011;12936;52.006;4.350;2023-09-07T03:59:39;13.10;;;10.93;;
24859;SDS011;12936;52.006;4.350;2023-09-07T04:02:10;14.25;;;11.20;;
24859;SDS011;12936;52.006;4.350;2023-09-07T04:04:39;14.75;;;11.63;;
24859;SDS011;12936;52.006;4.350;2023-09-07T04:07:08;14.60;;;11.77;;
24859;SDS011;12936;52.006;4.350;2023-09-07T04:09:37;15.75;;;12.00;;
24859;SDS011;12936;52.006;4.350;2023-09-07T04:12:13;14.60;;;11.43;;
24859;SDS011;12936;52.006;4.350;2023-09-07T04:14:42;14.82;;;11.38;;
24859;SDS011;12936;52.006;4.350;2023-09-07T04:17:12;14.40;;;11.98;;
24859;SDS011;12936;52.006;4.350;2023-09-07T04:19:42;14.32;;;12.55;;
24859;SDS011;12936;52.006;4.350;2023-09-07T04:22:12;15.73;;;12.35;;
24859;SDS011;12936;52.006;4.350;2023-09-07T04:24:41;16.02;;;12.60;;
24859;SDS011;12936;52.006;4.350;2023-09-07T04:27:09;15.85;;;13.25;;
24859;SDS011;12936;52.006;4.350;2023-09-07T04:29:37;14.57;;;12.40;;
24859;SDS011;12936;52.006;4.350;2023-09-07T04:32:06;16.83;;;13.82;;
24859;SDS011;12936;52.006;4.350;2023-09-07T04:34:36;17.08;;;12.80;;
24859;SDS011;12936;52.006;4.350;2023-09-07T04:37:04;15.88;;;12.15;;
24859;SDS011;12936;52.006;4.350;2023-09-07T04:39:32;15.95;;;12.70;;
24859;SDS011;12936;52.006;4.350;2023-09-07T04:42:00;14.50;;;12.93;;
24859;SDS011;12936;52.006;4.350;2023-09-07T04:44:28;18.65;;;12.90;;
24859;SDS011;12936;52.006;4.350;2023-09-07T04:46:56;15.57;;;12.75;;
24859;SDS011;12936;52.006;4.350;2023-09-07T04:49:24;14.25;;;12.75;;
24859;SDS011;12936;52.006;4.350;2023-09-07T04:51:54;15.50;;;13.23;;
24859;SDS011;12936;52.006;4.350;2023-09-07T04:54:22;19.20;;;13.48;;
24859;SDS011;12936;52.006;4.350;2023-09-07T04:56:50;14.88;;;13.05;;
24859;SDS011;12936;52.006;4.350;2023-09-07T04:59:18;17.05;;;12.45;;
24859;SDS011;12936;52.006;4.350;2023-09-07T05:01:47;17.27;;;12.75;;
24859;SDS011;12936;52.006;4.350;2023-09-07T05:04:15;13.95;;;12.48;;
24859;SDS011;12936;52.006;4.350;2023-09-07T05:06:43;14.93;;;12.35;;
24859;SDS011;12936;52.006;4.350;2023-09-07T05:09:13;14.77;;;13.27;;
24859;SDS011;12936;52.006;4.350;2023-09-07T05:11:42;15.88;;;13.52;;
24859;SDS011;12936;52.006;4.350;2023-09-07T05:14:10;15.23;;;12.98;;
24859;SDS011;12936;52.006;4.350;2023-09-07T05:16:38;15.55;;;13.57;;
24859;SDS011;12936;52.006;4.350;2023-09-07T05:19:06;15.98;;;13.75;;
24859;SDS011;12936;52.006;4.350;2023-09-07T05:21:34;19.13;;;13.75;;
24859;SDS011;12936;52.006;4.350;2023-09-07T05:24:03;16.20;;;13.75;;
24859;SDS011;12936;52.006;4.350;2023-09-07T05:26:33;18.15;;;14.30;;
24859;SDS011;12936;52.006;4.350;2023-09-07T05:29:01;18.35;;;13.45;;
24859;SDS011;12936;52.006;4.350;2023-09-07T05:31:29;15.93;;;13.35;;
24859;SDS011;12936;52.006;4.350;2023-09-07T05:33:57;16.45;;;13.93;;
24859;SDS011;12936;52.006;4.350;2023-09-07T05:36:26;15.73;;;14.02;;
24859;SDS011;12936;52.006;4.350;2023-09-07T05:38:55;17.27;;;14.73;;
24859;SDS011;12936;52.006;4.350;2023-09-07T05:41:23;17.40;;;14.63;;
24859;SDS011;12936;52.006;4.350;2023-09-07T05:43:52;18.20;;;14.32;;
24859;SDS011;12936;52.006;4.350;2023-09-07T05:46:20;20.92;;;15.63;;
24859;SDS011;12936;52.006;4.350;2023-09-07T05:48:49;17.27;;;15.15;;
24859;SDS011;12936;52.006;4.350;2023-09-07T05:51:18;18.08;;;15.50;;
24859;SDS011;12936;52.006;4.350;2023-09-07T05:53:46;18.52;;;14.60;;
24859;SDS011;12936;52.006;4.350;2023-09-07T05:56:14;18.58;;;14.48;;
24859;SDS011;12936;52.006;4.350;2023-09-07T05:58:42;18.02;;;14.15;;
24859;SDS011;12936;52.006;4.350;2023-09-07T06:01:12;17.85;;;14.13;;
24859;SDS011;12936;52.006;4.350;2023-09-07T06:03:40;16.13;;;13.60;;
24859;SDS011;12936;52.006;4.350;2023-09-07T06:06:08;16.75;;;14.18;;
24859;SDS011;12936;52.006;4.350;2023-09-07T06:08:36;18.40;;;14.75;;
24859;SDS011;12936;52.006;4.350;2023-09-07T06:11:04;16.05;;;14.00;;
24859;SDS011;12936;52.006;4.350;2023-09-07T06:13:33;18.33;;;14.88;;
24859;SDS011;12936;52.006;4.350;2023-09-07T06:16:01;18.38;;;14.18;;
24859;SDS011;12936;52.006;4.350;2023-09-07T06:18:31;15.88;;;13.75;;
24859;SDS011;12936;52.006;4.350;2023-09-07T06:20:59;18.50;;;14.77;;
24859;SDS011;12936;52.006;4.350;2023-09-07T06:23:27;19.58;;;15.55;;
24859;SDS011;12936;52.006;4.350;2023-09-07T06:25:56;21.05;;;13.95;;
24859;SDS011;12936;52.006;4.350;2023-09-07T06:28:24;15.57;;;13.80;;
24859;SDS011;12936;52.006;4.350;2023-09-07T06:30:52;18.65;;;13.93;;
24859;SDS011;12936;52.006;4.350;2023-09-07T06:33:20;17.08;;;14.45;;
24859;SDS011;12936;52.006;4.350;2023-09-07T06:35:50;18.13;;;13.73;;
24859;SDS011;12936;52.006;4.350;2023-09-07T06:38:19;18.58;;;13.98;;
24859;SDS011;12936;52.006;4.350;2023-09-07T06:40:47;19.73;;;15.38;;
24859;SDS011;12936;52.006;4.350;2023-09-07T06:43:16;17.83;;;14.25;;
24859;SDS011;12936;52.006;4.350;2023-09-07T06:45:44;21.98;;;15.30;;
24859;SDS011;12936;52.006;4.350;2023-09-07T06:48:13;19.60;;;14.32;;
24859;SDS011;12936;52.006;4.350;2023-09-07T06:50:41;18.50;;;13.77;;
24859;SDS011;12936;52.006;4.350;2023-09-07T06:53:11;16.67;;;14.25;;
24859;SDS011;12936;52.006;4.350;2023-09-07T06:55:39;17.63;;;13.27;;
24859;SDS011;12936;52.006;4.350;2023-09-07T06:58:07;16.45;;;13.55;;
24859;SDS011;12936;52.006;4.350;2023-09-07T07:00:36;18.48;;;14.25;;
24859;SDS011;12936;52.006;4.350;2023-09-07T07:03:04;17.40;;;14.35;;
24859;SDS011;12936;52.006;4.350;2023-09-07T07:05:32;18.52;;;13.90;;
24859;SDS011;12936;52.006;4.350;2023-09-07T07:08:00;18.52;;;13.80;;
24859;SDS011;12936;52.006;4.350;2023-09-07T07:10:30;16.95;;;14.13;;
24859;SDS011;12936;52.006;4.350;2023-09-07T07:12:58;18.67;;;13.38;;
24859;SDS011;12936;52.006;4.350;2023-09-07T07:15:26;16.63;;;12.40;;
24859;SDS011;12936;52.006;4.350;2023-09-07T07:17:57;18.67;;;13.73;;
24859;SDS011;12936;52.006;4.350;2023-09-07T07:20:25;20.95;;;14.25;;
24859;SDS011;12936;52.006;4.350;2023-09-07T07:22:53;16.08;;;13.18;;
24859;SDS011;12936;52.006;4.350;2023-09-07T07:25:21;16.60;;;14.15;;
24859;SDS011;12936;52.006;4.350;2023-09-07T07:27:52;18.00;;;13.60;;
24859;SDS011;12936;52.006;4.350;2023-09-07T07:30:20;15.68;;;12.82;;
24859;SDS011;12936;52.006;4.350;2023-09-07T07:32:48;18.80;;;14.02;;
24859;SDS011;12936;52.006;4.350;2023-09-07T07:35:17;14.10;;;12.27;;
24859;SDS011;12936;52.006;4.350;2023-09-07T07:37:45;15.18;;;12.15;;
24859;SDS011;12936;52.006;4.350;2023-09-07T07:40:13;16.52;;;12.57;;
24859;SDS011;12936;52.006;4.350;2023-09-07T07:42:42;14.70;;;12.50;;
24859;SDS011;12936;52.006;4.350;2023-09-07T07:45:11;19.33;;;12.40;;
24859;SDS011;12936;52.006;4.350;2023-09-07T07:47:40;15.98;;;12.30;;
24859;SDS011;12936;52.006;4.350;2023-09-07T07:50:08;14.82;;;11.80;;
24859;SDS011;12936;52.006;4.350;2023-09-07T07:52:37;13.82;;;11.30;;
24859;SDS011;12936;52.006;4.350;2023-09-07T07:55:05;15.93;;;11.32;;
24859;SDS011;12936;52.006;4.350;2023-09-07T07:57:33;14.30;;;11.73;;
24859;SDS011;12936;52.006;4.350;2023-09-07T08:00:02;16.27;;;11.23;;
24859;SDS011;12936;52.006;4.350;2023-09-07T08:02:32;15.65;;;11.27;;
24859;SDS011;12936;52.006;4.350;2023-09-07T08:05:00;12.07;;;10.52;;
24859;SDS011;12936;52.006;4.350;2023-09-07T08:07:29;21.08;;;11.20;;
24859;SDS011;12936;52.006;4.350;2023-09-07T08:09:57;56.67;;;45.95;;
24859;SDS011;12936;52.006;4.350;2023-09-07T08:12:25;16.17;;;11.48;;
24859;SDS011;12936;52.006;4.350;2023-09-07T08:14:54;16.73;;;10.55;;
24859;SDS011;12936;52.006;4.350;2023-09-07T08:17:22;17.10;;;10.90;;
24859;SDS011;12936;52.006;4.350;2023-09-07T08:19:53;35.85;;;12.32;;
24859;SDS011;12936;52.006;4.350;2023-09-07T08:22:22;17.65;;;10.32;;
24859;SDS011;12936;52.006;4.350;2023-09-07T08:24:50;17.38;;;9.57;;
24859;SDS011;12936;52.006;4.350;2023-09-07T08:27:18;12.23;;;9.52;;
24859;SDS011;12936;52.006;4.350;2023-09-07T08:29:47;19.60;;;10.98;;
24859;SDS011;12936;52.006;4.350;2023-09-07T08:32:19;13.27;;;10.05;;
24859;SDS011;12936;52.006;4.350;2023-09-07T08:34:47;21.25;;;10.40;;
24859;SDS011;12936;52.006;4.350;2023-09-07T08:37:17;16.75;;;9.95;;
24859;SDS011;12936;52.006;4.350;2023-09-07T08:39:50;14.00;;;9.10;;
24859;SDS011;12936;52.006;4.350;2023-09-07T08:42:20;10.93;;;8.13;;
24859;SDS011;12936;52.006;4.350;2023-09-07T08:44:48;11.80;;;8.82;;
24859;SDS011;12936;52.006;4.350;2023-09-07T08:47:18;12.95;;;8.98;;
24859;SDS011;12936;52.006;4.350;2023-09-07T08:49:48;13.70;;;8.88;;
24859;SDS011;12936;52.006;4.350;2023-09-07T08:52:19;10.13;;;7.97;;
24859;SDS011;12936;52.006;4.350;2023-09-07T08:54:48;10.48;;;7.95;;
24859;SDS011;12936;52.006;4.350;2023-09-07T08:57:17;11.85;;;8.07;;
24859;SDS011;12936;52.006;4.350;2023-09-07T08:59:54;10.05;;;7.45;;
24859;SDS011;12936;52.006;4.350;2023-09-07T09:02:22;10.90;;;7.85;;
24859;SDS011;12936;52.006;4.350;2023-09-07T09:04:50;11.35;;;7.90;;
24859;SDS011;12936;52.006;4.350;2023-09-07T09:07:21;12.23;;;6.93;;
24859;SDS011;12936;52.006;4.350;2023-09-07T09:09:49;9.70;;;7.05;;
24859;SDS011;12936;52.006;4.350;2023-09-07T09:12:18;11.07;;;7.82;;
24859;SDS011;12936;52.006;4.350;2023-09-07T09:14:46;11.63;;;7.03;;
24859;SDS011;12936;52.006;4.350;2023-09-07T09:17:14;10.10;;;7.30;;
24859;SDS011;12936;52.006;4.350;2023-09-07T09:19:43;10.32;;;7.00;;
24859;SDS011;12936;52.006;4.350;2023-09-07T09:22:11;9.38;;;7.75;;
24859;SDS011;12936;52.006;4.350;2023-09-07T09:24:41;9.48;;;7.28;;
24859;SDS011;12936;52.006;4.350;2023-09-07T09:27:09;9.70;;;7.38;;
24859;SDS011;12936;52.006;4.350;2023-09-07T09:29:37;11.35;;;7.97;;
24859;SDS011;12936;52.006;4.350;2023-09-07T09:32:06;15.25;;;7.40;;
24859;SDS011;12936;52.006;4.350;2023-09-07T09:34:34;11.43;;;6.85;;
24859;SDS011;12936;52.006;4.350;2023-09-07T09:37:03;10.68;;;6.78;;
24859;SDS011;12936;52.006;4.350;2023-09-07T09:39:33;13.27;;;7.28;;
24859;SDS011;12936;52.006;4.350;2023-09-07T09:42:04;10.57;;;6.65;;
24859;SDS011;12936;52.006;4.350;2023-09-07T09:44:32;10.82;;;6.22;;
24859;SDS011;12936;52.006;4.350;2023-09-07T09:47:04;9.77;;;6.15;;
24859;SDS011;12936;52.006;4.350;2023-09-07T09:49:33;10.40;;;6.63;;
24859;SDS011;12936;52.006;4.350;2023-09-07T09:52:02;9.57;;;6.85;;
24859;SDS011;12936;52.006;4.350;2023-09-07T09:54:32;11.13;;;6.28;;
24859;SDS011;12936;52.006;4.350;2023-09-07T09:57:04;9.60;;;6.78;;
24859;SDS011;12936;52.006;4.350;2023-09-07T09:59:32;15.32;;;6.97;;
24859;SDS011;12936;52.006;4.350;2023-09-07T10:02:01;14.18;;;6.35;;
24859;SDS011;12936;52.006;4.350;2023-09-07T10:04:31;9.90;;;6.28;;
24859;SDS011;12936;52.006;4.350;2023-09-07T10:07:00;10.45;;;6.25;;
24859;SDS011;12936;52.006;4.350;2023-09-07T10:09:32;13.73;;;6.57;;
24859;SDS011;12936;52.006;4.350;2023-09-07T10:12:01;12.32;;;5.95;;
24859;SDS011;12936;52.006;4.350;2023-09-07T10:14:41;6.07;;;5.47;;
24859;SDS011;12936;52.006;4.350;2023-09-07T10:17:20;8.20;;;5.85;;
24859;SDS011;12936;52.006;4.350;2023-09-07T10:19:49;8.45;;;6.00;;
24859;SDS011;12936;52.006;4.350;2023-09-07T10:22:20;10.30;;;5.70;;
24859;SDS011;12936;52.006;4.350;2023-09-07T10:24:56;12.38;;;6.30;;
24859;SDS011;12936;52.006;4.350;2023-09-07T10:27:25;8.15;;;5.28;;
24859;SDS011;12936;52.006;4.350;2023-09-07T10:30:10;9.85;;;5.43;;
24859;SDS011;12936;52.006;4.350;2023-09-07T10:32:40;14.93;;;5.63;;
24859;SDS011;12936;52.006;4.350;2023-09-07T10:35:14;9.07;;;5.85;;
24859;SDS011;12936;52.006;4.350;2023-09-07T10:37:44;8.35;;;5.45;;
24859;SDS011;12936;52.006;4.350;2023-09-07T10:40:18;16.13;;;5.15;;
24859;SDS011;12936;52.006;4.350;2023-09-07T10:42:48;11.07;;;5.35;;
24859;SDS011;12936;52.006;4.350;2023-09-07T10:45:17;6.70;;;4.40;;
24859;SDS011;12936;52.006;4.350;2023-09-07T10:47:45;8.65;;;4.82;;
24859;SDS011;12936;52.006;4.350;2023-09-07T10:50:14;7.65;;;4.35;;
24859;SDS011;12936;52.006;4.350;2023-09-07T10:52:43;8.10;;;3.83;;
24859;SDS011;12936;52.006;4.350;2023-09-07T10:55:11;10.07;;;4.30;;
24859;SDS011;12936;52.006;4.350;2023-09-07T10:57:43;11.75;;;4.18;;
24859;SDS011;12936;52.006;4.350;2023-09-07T11:00:12;9.85;;;4.15;;
24859;SDS011;12936;52.006;4.350;2023-09-07T11:02:43;8.40;;;3.88;;
24859;SDS011;12936;52.006;4.350;2023-09-07T11:05:12;10.75;;;3.88;;
24859;SDS011;12936;52.006;4.350;2023-09-07T11:07:40;8.73;;;4.43;;
24859;SDS011;12936;52.006;4.350;2023-09-07T11:10:10;6.78;;;4.72;;
24859;SDS011;12936;52.006;4.350;2023-09-07T11:12:38;4.72;;;4.05;;
24859;SDS011;12936;52.006;4.350;2023-09-07T11:15:08;6.28;;;4.07;;
24859;SDS011;12936;52.006;4.350;2023-09-07T11:17:37;7.97;;;4.38;;
24859;SDS011;12936;52.006;4.350;2023-09-07T11:20:08;8.20;;;4.05;;
24859;SDS011;12936;52.006;4.350;2023-09-07T11:22:37;7.13;;;4.80;;
24859;SDS011;12936;52.006;4.350;2023-09-07T11:25:24;7.40;;;4.20;;
24859;SDS011;12936;52.006;4.350;2023-09-07T11:27:52;6.50;;;4.03;;
24859;SDS011;12936;52.006;4.350;2023-09-07T11:30:21;5.85;;;4.22;;
24859;SDS011;12936;52.006;4.350;2023-09-07T11:32:50;4.80;;;3.75;;
24859;SDS011;12936;52.006;4.350;2023-09-07T11:35:28;6.75;;;4.35;;
24859;SDS011;12936;52.006;4.350;2023-09-07T11:37:56;6.68;;;3.97;;
24859;SDS011;12936;52.006;4.350;2023-09-07T11:40:26;7.38;;;3.78;;
24859;SDS011;12936;52.006;4.350;2023-09-07T11:42:54;12.80;;;3.72;;
24859;SDS011;12936;52.006;4.350;2023-09-07T11:45:22;7.72;;;3.58;;
24859;SDS011;12936;52.006;4.350;2023-09-07T11:47:50;8.45;;;3.58;;
24859;SDS011;12936;52.006;4.350;2023-09-07T11:50:19;8.82;;;3.65;;
24859;SDS011;12936;52.006;4.350;2023-09-07T11:52:52;7.63;;;3.58;;
24859;SDS011;12936;52.006;4.350;2023-09-07T11:55:20;5.85;;;3.25;;
24859;SDS011;12936;52.006;4.350;2023-09-07T11:57:48;8.35;;;3.75;;
24859;SDS011;12936;52.006;4.350;2023-09-07T12:00:18;6.93;;;3.53;;
24859;SDS011;12936;52.006;4.350;2023-09-07T12:02:46;5.82;;;3.53;;
24859;SDS011;12936;52.006;4.350;2023-09-07T12:05:14;7.43;;;3.47;;
24859;SDS011;12936;52.006;4.350;2023-09-07T12:07:44;9.02;;;3.55;;
24859;SDS011;12936;52.006;4.350;2023-09-07T12:10:14;7.47;;;3.42;;
24859;SDS011;12936;52.006;4.350;2023-09-07T12:12:42;4.63;;;3.50;;
24859;SDS011;12936;52.006;4.350;2023-09-07T12:15:13;4.32;;;3.22;;
24859;SDS011;12936;52.006;4.350;2023-09-07T12:17:42;5.95;;;3.63;;
24859;SDS011;12936;52.006;4.350;2023-09-07T12:20:11;6.13;;;3.20;;
24859;SDS011;12936;52.006;4.350;2023-09-07T12:22:40;11.65;;;3.95;;
24859;SDS011;12936;52.006;4.350;2023-09-07T12:25:09;8.73;;;3.70;;
24859;SDS011;12936;52.006;4.350;2023-09-07T12:27:42;9.13;;;3.53;;
24859;SDS011;12936;52.006;4.350;2023-09-07T12:30:20;6.22;;;3.53;;
24859;SDS011;12936;52.006;4.350;2023-09-07T12:32:50;8.55;;;3.65;;
24859;SDS011;12936;52.006;4.350;2023-09-07T12:35:19;10.52;;;3.70;;
24859;SDS011;12936;52.006;4.350;2023-09-07T12:37:47;6.25;;;3.78;;
24859;SDS011;12936;52.006;4.350;2023-09-07T12:40:15;6.78;;;3.10;;
24859;SDS011;12936;52.006;4.350;2023-09-07T12:42:45;9.88;;;3.47;;
24859;SDS011;12936;52.006;4.350;2023-09-07T12:45:13;5.35;;;3.35;;
24859;SDS011;12936;52.006;4.350;2023-09-07T12:47:43;5.38;;;3.10;;
24859;SDS011;12936;52.006;4.350;2023-09-07T12:50:11;5.10;;;3.33;;
24859;SDS011;12936;52.006;4.350;2023-09-07T12:52:40;8.77;;;3.83;;
24859;SDS011;12936;52.006;4.350;2023-09-07T12:55:09;4.35;;;2.85;;
24859;SDS011;12936;52.006;4.350;2023-09-07T12:57:37;6.97;;;3.25;;
24859;SDS011;12936;52.006;4.350;2023-09-07T13:00:09;5.32;;;3.17;;
24859;SDS011;12936;52.006;4.350;2023-09-07T13:02:38;5.38;;;3.20;;
24859;SDS011;12936;52.006;4.350;2023-09-07T13:05:06;5.03;;;3.00;;
24859;SDS011;12936;52.006;4.350;2023-09-07T13:07:35;5.90;;;3.10;;
24859;SDS011;12936;52.006;4.350;2023-09-07T13:10:04;7.00;;;3.30;;
24859;SDS011;12936;52.006;4.350;2023-09-07T13:12:33;6.40;;;2.90;;
24859;SDS011;12936;52.006;4.350;2023-09-07T13:15:01;7.07;;;3.30;;
24859;SDS011;12936;52.006;4.350;2023-09-07T13:17:31;8.43;;;3.25;;
24859;SDS011;12936;52.006;4.350;2023-09-07T13:19:59;4.85;;;3.60;;
24859;SDS011;12936;52.006;4.350;2023-09-07T13:22:27;5.05;;;3.00;;
24859;SDS011;12936;52.006;4.350;2023-09-07T13:24:56;5.25;;;3.10;;
24859;SDS011;12936;52.006;4.350;2023-09-07T13:27:24;3.38;;;3.08;;
24859;SDS011;12936;52.006;4.350;2023-09-07T13:29:52;6.28;;;3.15;;
24859;SDS011;12936;52.006;4.350;2023-09-07T13:32:20;3.45;;;2.83;;
24859;SDS011;12936;52.006;4.350;2023-09-07T13:34:50;8.23;;;3.25;;
24859;SDS011;12936;52.006;4.350;2023-09-07T13:37:18;7.20;;;3.50;;
24859;SDS011;12936;52.006;4.350;2023-09-07T13:39:47;3.33;;;3.03;;
24859;SDS011;12936;52.006;4.350;2023-09-07T13:42:15;7.45;;;2.83;;
24859;SDS011;12936;52.006;4.350;2023-09-07T13:44:43;4.50;;;2.97;;
24859;SDS011;12936;52.006;4.350;2023-09-07T13:47:13;5.47;;;3.20;;
24859;SDS011;12936;52.006;4.350;2023-09-07T13:49:41;5.72;;;2.72;;
24859;SDS011;12936;52.006;4.350;2023-09-07T13:52:11;8.27;;;3.05;;
24859;SDS011;12936;52.006;4.350;2023-09-07T13:54:40;5.95;;;3.17;;
24859;SDS011;12936;52.006;4.350;2023-09-07T13:57:08;5.45;;;3.50;;
24859;SDS011;12936;52.006;4.350;2023-09-07T13:59:36;6.97;;;3.50;;
24859;SDS011;12936;52.006;4.350;2023-09-07T14:02:04;5.15;;;3.00;;
24859;SDS011;12936;52.006;4.350;2023-09-07T14:04:36;4.60;;;3.10;;
24859;SDS011;12936;52.006;4.350;2023-09-07T14:07:04;7.15;;;3.28;;
24859;SDS011;12936;52.006;4.350;2023-09-07T14:09:34;6.70;;;3.28;;
24859;SDS011;12936;52.006;4.350;2023-09-07T14:12:02;5.05;;;3.35;;
24859;SDS011;12936;52.006;4.350;2023-09-07T14:14:31;4.25;;;3.22;;
24859;SDS011;12936;52.006;4.350;2023-09-07T14:16:59;7.78;;;3.45;;
24859;SDS011;12936;52.006;4.350;2023-09-07T14:19:27;3.47;;;3.00;;
24859;SDS011;12936;52.006;4.350;2023-09-07T14:21:57;4.95;;;3.00;;
24859;SDS011;12936;52.006;4.350;2023-09-07T14:24:25;5.95;;;3.08;;
24859;SDS011;12936;52.006;4.350;2023-09-07T14:26:55;3.78;;;3.22;;
24859;SDS011;12936;52.006;4.350;2023-09-07T14:29:23;5.13;;;2.70;;
24859;SDS011;12936;52.006;4.350;2023-09-07T14:31:55;6.03;;;2.83;;
24859;SDS011;12936;52.006;4.350;2023-09-07T14:34:23;7.28;;;3.30;;
24859;SDS011;12936;52.006;4.350;2023-09-07T14:36:52;4.82;;;3.40;;
24859;SDS011;12936;52.006;4.350;2023-09-07T14:39:21;7.00;;;3.45;;
24859;SDS011;12936;52.006;4.350;2023-09-07T14:41:50;6.18;;;3.20;;
24859;SDS011;12936;52.006;4.350;2023-09-07T14:44:21;7.47;;;2.85;;
24859;SDS011;12936;52.006;4.350;2023-09-07T14:46:49;6.60;;;3.17;;